LFPO/ORY METAR and TAF weather

Enter ICAO airport designator
Station Type Date Time Source
LFPO METAR 2020/01/19 00:30 UTC NOAA

LFPO 190030Z 36003KT CAVOK 03/00 Q1033 NOSIG


Station Type Date Time Source
LFPO Decoded METAR 2020/01/19 00:30 UTC NOAA

Paris-Orly, France (LFPO) 48-44N 002-24E 96M
Jan 18, 2020 - 07:30 PM EST / 2020.01.19 0030 UTC
Wind: from the N (360 degrees) at 3 MPH (3 KT):0
Visibility: greater than 7 mile(s):0
Temperature: 37 F (3 C)
Dew Point: 32 F (0 C)
Relative Humidity: 80%
Pressure (altimeter): 30.50 in. Hg (1033 hPa)
ob: LFPO 190030Z 36003KT CAVOK 03/00 Q1033 NOSIG
cycle: 0

Station Type Date Time Source
LFPO TAF 2020/01/18 18:21 UTC NOAA

TAF LFPO 181700Z 1818/1924 01005KT CAVOK
BECMG 1901/1903 BKN020 PROB30
TEMPO 1901/1906 3000 BR BKN008 PROB30
TEMPO 1910/1912 BKN010 PROB30
TEMPO 1913/1916 36012G22KT -SHRA SCT020TCU
BECMG 1916/1919 CAVOK

Example: see airport list